createdAt,value
2022-12-17T00:01:08.058Z,10.93
2022-12-17T00:03:56.646Z,13.50
2022-12-17T00:06:42.929Z,11.82
2022-12-17T00:09:28.933Z,11.13
2022-12-17T00:12:14.798Z,12.43
2022-12-17T00:15:00.734Z,12.18
2022-12-17T00:17:46.887Z,11.15
2022-12-17T00:20:32.598Z,10.07
2022-12-17T00:23:22.172Z,11.55
2022-12-17T00:26:11.590Z,11.82
2022-12-17T00:28:57.904Z,10.45
2022-12-17T00:31:46.099Z,11.60
2022-12-17T00:34:31.993Z,12.98
2022-12-17T00:37:17.950Z,11.70
2022-12-17T00:40:03.827Z,10.52
2022-12-17T00:42:49.890Z,10.75
2022-12-17T00:45:36.112Z,11.77
2022-12-17T00:48:22.043Z,11.40
2022-12-17T00:51:07.910Z,13.23
2022-12-17T00:53:53.826Z,13.73
2022-12-17T00:56:40.733Z,9.30
2022-12-17T00:59:26.632Z,9.93
2022-12-17T01:02:12.726Z,12.73
2022-12-17T01:04:58.599Z,10.65
2022-12-17T01:07:44.472Z,11.10
2022-12-17T01:10:30.377Z,10.57
2022-12-17T01:13:16.284Z,9.98
2022-12-17T01:16:02.344Z,11.15
2022-12-17T01:18:48.256Z,11.25
2022-12-17T01:21:34.258Z,9.25
2022-12-17T01:24:20.298Z,8.52
2022-12-17T01:27:07.848Z,9.57
2022-12-17T01:29:53.677Z,7.95
2022-12-17T01:32:41.990Z,11.25
2022-12-17T01:35:28.071Z,11.38
2022-12-17T01:38:13.773Z,8.65
2022-12-17T01:40:59.669Z,9.00
2022-12-17T01:43:56.508Z,8.00
2022-12-17T01:46:42.468Z,7.72
2022-12-17T01:49:28.986Z,9.10
2022-12-17T01:52:15.105Z,8.70
2022-12-17T01:55:01.091Z,10.30
2022-12-17T01:57:47.102Z,10.32
2022-12-17T02:00:33.567Z,8.60
2022-12-17T02:03:19.632Z,10.05
2022-12-17T02:06:28.978Z,11.32
2022-12-17T02:09:18.047Z,8.55
2022-12-17T02:12:15.601Z,7.63
2022-12-17T02:15:07.686Z,9.13
2022-12-17T02:17:59.992Z,9.13
2022-12-17T02:20:49.531Z,8.52
2022-12-17T02:23:50.426Z,9.65
2022-12-17T02:26:49.064Z,8.43
2022-12-17T02:29:35.408Z,7.55
2022-12-17T02:32:21.991Z,8.88
2022-12-17T02:35:08.148Z,6.95
2022-12-17T02:37:53.969Z,9.27
2022-12-17T02:40:41.473Z,7.47
2022-12-17T02:43:27.978Z,9.10
2022-12-17T02:46:15.045Z,8.88
2022-12-17T02:49:01.242Z,7.85
2022-12-17T02:51:47.346Z,8.45
2022-12-17T02:54:33.146Z,9.05
2022-12-17T02:57:19.179Z,7.95
2022-12-17T03:00:04.759Z,8.75
2022-12-17T03:02:50.372Z,7.80
2022-12-17T03:05:45.085Z,7.95
2022-12-17T03:08:30.962Z,8.32
2022-12-17T03:11:16.983Z,9.20
2022-12-17T03:14:02.874Z,10.20
2022-12-17T03:16:48.938Z,7.60
2022-12-17T03:19:34.700Z,8.32
2022-12-17T03:22:20.620Z,7.85
2022-12-17T03:25:06.671Z,7.38
2022-12-17T03:27:52.669Z,9.27
2022-12-17T03:30:39.169Z,9.43
2022-12-17T03:33:27.588Z,10.40
2022-12-17T03:36:13.957Z,8.18
2022-12-17T03:38:59.893Z,9.25
2022-12-17T03:41:45.887Z,7.47
2022-12-17T03:44:31.921Z,8.70
2022-12-17T03:47:17.832Z,7.93
2022-12-17T03:50:03.721Z,7.18
2022-12-17T03:52:49.561Z,7.15
2022-12-17T03:55:35.601Z,7.97
2022-12-17T03:58:21.523Z,10.98
2022-12-17T04:01:07.409Z,8.77
2022-12-17T04:03:53.041Z,9.32
2022-12-17T04:06:38.943Z,7.82
2022-12-17T04:09:24.899Z,8.20
2022-12-17T04:12:10.767Z,8.93
2022-12-17T04:14:56.682Z,6.90
2022-12-17T04:17:42.686Z,9.05
2022-12-17T04:20:28.537Z,7.80
2022-12-17T04:23:14.524Z,6.65
2022-12-17T04:26:00.517Z,7.57
2022-12-17T04:28:46.346Z,8.00
2022-12-17T04:31:32.018Z,11.75
2022-12-17T04:34:17.616Z,8.35
2022-12-17T04:37:05.205Z,8.00
2022-12-17T04:39:51.034Z,7.60
2022-12-17T04:42:37.956Z,7.15
2022-12-17T04:45:23.978Z,8.32
2022-12-17T04:48:09.419Z,8.23
2022-12-17T04:50:55.057Z,8.18
2022-12-17T04:53:40.723Z,7.85
2022-12-17T04:56:26.289Z,8.73
2022-12-17T04:59:12.072Z,7.30
2022-12-17T05:01:58.894Z,6.20
2022-12-17T05:04:44.813Z,7.28
2022-12-17T05:07:30.357Z,7.93
2022-12-17T05:10:16.254Z,6.80
2022-12-17T05:13:01.562Z,10.52
2022-12-17T05:15:52.933Z,7.85
2022-12-17T05:18:39.247Z,7.70
2022-12-17T05:21:29.206Z,7.78
2022-12-17T05:24:17.608Z,6.72
2022-12-17T05:27:03.573Z,6.78
2022-12-17T05:29:49.536Z,6.72
2022-12-17T05:32:35.304Z,7.00
2022-12-17T05:35:21.319Z,6.57
2022-12-17T05:38:07.254Z,6.93
2022-12-17T05:40:53.312Z,10.27
2022-12-17T05:43:41.250Z,8.48
2022-12-17T05:46:27.282Z,6.93
2022-12-17T05:49:12.946Z,7.43
2022-12-17T05:51:58.941Z,7.85
2022-12-17T05:54:44.786Z,7.82
2022-12-17T05:57:30.676Z,7.97
2022-12-17T06:00:16.558Z,7.13
2022-12-17T06:03:02.564Z,7.97
2022-12-17T06:05:48.371Z,8.25
2022-12-17T06:08:34.426Z,7.35
2022-12-17T06:11:22.804Z,7.45
2022-12-17T06:14:08.840Z,6.72
2022-12-17T06:16:54.670Z,8.07
2022-12-17T06:19:40.406Z,6.97
2022-12-17T06:22:26.301Z,6.05
2022-12-17T06:25:12.345Z,7.15
2022-12-17T06:27:58.377Z,9.70
2022-12-17T06:30:44.408Z,7.95
2022-12-17T06:33:30.741Z,8.55
2022-12-17T06:36:22.070Z,8.68
2022-12-17T06:39:08.727Z,14.50
2022-12-17T06:42:02.041Z,15.55
2022-12-17T06:44:49.850Z,11.30
2022-12-17T06:47:35.867Z,7.97
2022-12-17T06:50:21.705Z,7.05
2022-12-17T06:53:18.447Z,7.78
2022-12-17T06:56:04.379Z,9.45
2022-12-17T06:58:50.323Z,8.05
2022-12-17T07:01:36.188Z,8.65
2022-12-17T07:04:22.406Z,10.40
2022-12-17T07:07:08.108Z,14.43
2022-12-17T07:09:53.606Z,11.55
2022-12-17T07:12:40.057Z,10.52
2022-12-17T07:15:25.770Z,10.65
2022-12-17T07:18:15.460Z,10.02
2022-12-17T07:21:01.417Z,12.20
2022-12-17T07:23:47.308Z,9.23
2022-12-17T07:26:32.991Z,9.90
2022-12-17T07:29:18.704Z,13.07
2022-12-17T07:32:04.469Z,9.18
2022-12-17T07:34:50.357Z,10.40
2022-12-17T07:37:36.144Z,14.10
2022-12-17T07:40:23.105Z,9.85
2022-12-17T07:43:09.106Z,10.13
2022-12-17T07:45:55.149Z,9.35
2022-12-17T07:48:40.736Z,10.02
2022-12-17T07:51:26.833Z,8.90
2022-12-17T07:54:20.227Z,8.65
2022-12-17T07:57:06.192Z,10.25
2022-12-17T07:59:51.935Z,9.02
2022-12-17T08:02:37.863Z,9.13
2022-12-17T08:05:23.814Z,9.38
2022-12-17T08:08:09.752Z,7.70
2022-12-17T08:10:55.729Z,14.63
2022-12-17T08:13:41.721Z,9.48
2022-12-17T08:16:27.548Z,9.18
2022-12-17T08:19:15.001Z,10.35
2022-12-17T08:24:54.188Z,10.10
2022-12-17T08:27:39.786Z,9.45
2022-12-17T08:30:25.627Z,10.02
2022-12-17T08:33:11.658Z,7.93
2022-12-17T08:35:57.753Z,9.63
2022-12-17T08:38:43.523Z,8.55
2022-12-17T08:41:29.526Z,9.43
2022-12-17T08:44:15.026Z,8.43
2022-12-17T08:47:02.347Z,9.52
2022-12-17T08:49:47.784Z,8.60
2022-12-17T08:52:35.739Z,12.27
2022-12-17T08:55:22.962Z,8.10
2022-12-17T08:58:16.244Z,9.88
2022-12-17T09:01:02.148Z,10.23
2022-12-17T09:04:05.306Z,10.48
2022-12-17T09:06:51.301Z,11.38
2022-12-17T09:09:36.939Z,8.95
2022-12-17T09:12:22.760Z,8.20
2022-12-17T09:15:08.660Z,9.40
2022-12-17T09:17:54.274Z,10.13
2022-12-17T09:20:39.696Z,11.32
2022-12-17T09:23:25.355Z,12.63
2022-12-17T09:26:14.240Z,8.88
2022-12-17T09:29:00.188Z,9.40
2022-12-17T09:31:45.786Z,10.63
2022-12-17T09:34:31.623Z,11.57
2022-12-17T09:37:17.040Z,11.20
2022-12-17T09:40:02.719Z,9.85
2022-12-17T09:42:55.579Z,11.48
2022-12-17T09:45:47.001Z,11.15
2022-12-17T09:48:40.828Z,10.23
2022-12-17T09:51:36.384Z,10.25
2022-12-17T09:54:22.364Z,9.40
2022-12-17T09:57:08.385Z,8.85
2022-12-17T09:59:54.436Z,9.68
2022-12-17T10:02:44.059Z,9.00
2022-12-17T10:05:40.800Z,13.73
2022-12-17T10:08:27.252Z,9.10
2022-12-17T10:11:13.893Z,10.80
2022-12-17T10:13:59.908Z,10.68
2022-12-17T10:16:45.847Z,10.57
2022-12-17T10:19:54.495Z,8.80
2022-12-17T10:22:40.598Z,11.48
2022-12-17T10:25:39.199Z,12.45
2022-12-17T10:28:26.088Z,10.55
2022-12-17T10:31:11.640Z,11.85
2022-12-17T10:33:59.939Z,9.27
2022-12-17T10:36:54.548Z,14.48
2022-12-17T10:39:42.991Z,9.50
2022-12-17T10:42:38.655Z,9.82
2022-12-17T10:45:40.903Z,10.73
2022-12-17T10:48:43.381Z,10.20
2022-12-17T10:51:38.374Z,10.80
2022-12-17T10:54:28.919Z,11.40
2022-12-17T10:57:16.711Z,11.60
2022-12-17T11:00:02.421Z,10.85
2022-12-17T11:02:49.390Z,8.90
2022-12-17T11:05:39.731Z,11.63
2022-12-17T11:08:25.630Z,9.25
2022-12-17T11:11:11.797Z,10.65
2022-12-17T11:14:02.040Z,10.98
2022-12-17T11:16:56.157Z,10.70
2022-12-17T11:19:55.772Z,12.57
2022-12-17T11:22:48.793Z,11.20
2022-12-17T11:25:46.407Z,10.80
2022-12-17T11:28:41.177Z,10.73
2022-12-17T11:31:39.162Z,9.85
2022-12-17T11:34:34.880Z,10.95
2022-12-17T11:37:33.178Z,8.80
2022-12-17T11:40:34.122Z,11.32
2022-12-17T11:43:53.981Z,9.70
2022-12-17T11:46:49.303Z,10.98
2022-12-17T11:49:35.767Z,12.20
2022-12-17T11:52:27.841Z,9.13
2022-12-17T11:55:16.552Z,8.63
2022-12-17T11:58:11.544Z,10.10
2022-12-17T12:01:16.242Z,11.02
2022-12-17T12:04:14.200Z,8.32
2022-12-17T12:07:08.212Z,11.27
2022-12-17T12:09:54.268Z,11.90
2022-12-17T12:12:47.159Z,9.90
2022-12-17T12:15:53.112Z,10.23
2022-12-17T12:19:00.296Z,9.63
2022-12-17T12:21:48.930Z,10.70
2022-12-17T12:24:34.877Z,8.82
2022-12-17T12:27:42.765Z,8.13
2022-12-17T12:30:40.348Z,10.57
2022-12-17T12:33:28.599Z,10.60
2022-12-17T12:36:21.598Z,9.55
2022-12-17T12:39:09.961Z,9.32
2022-12-17T12:42:10.054Z,12.38
2022-12-17T12:44:58.784Z,11.85
2022-12-17T12:47:51.862Z,10.35
2022-12-17T12:50:41.955Z,9.10
2022-12-17T12:53:30.944Z,11.23
2022-12-17T12:56:17.602Z,10.52
2022-12-17T12:59:03.080Z,10.90
2022-12-17T13:01:53.545Z,9.27
2022-12-17T13:04:51.915Z,8.07
2022-12-17T13:07:37.530Z,10.52
2022-12-17T13:10:18.124Z,9.05
2022-12-17T13:12:46.228Z,9.10
2022-12-17T13:15:19.056Z,9.75
2022-12-17T13:18:01.264Z,9.23
2022-12-17T13:20:34.242Z,11.57
2022-12-17T13:23:11.177Z,10.23
2022-12-17T13:25:38.685Z,9.85
2022-12-17T13:28:08.671Z,9.60
2022-12-17T13:30:36.848Z,9.18
2022-12-17T13:33:07.173Z,9.73
2022-12-17T13:35:41.581Z,10.00
2022-12-17T13:38:23.296Z,9.65
2022-12-17T13:41:10.910Z,9.82
2022-12-17T13:43:41.002Z,12.85
2022-12-17T13:46:08.241Z,9.35
2022-12-17T13:48:35.890Z,8.65
2022-12-17T13:51:04.969Z,8.30
2022-12-17T13:53:34.429Z,8.10
2022-12-17T13:56:01.759Z,11.27
2022-12-17T13:58:31.129Z,8.95
2022-12-17T14:01:09.201Z,7.97
2022-12-17T14:04:04.253Z,8.32
2022-12-17T14:06:25.560Z,8.32
2022-12-17T14:08:54.432Z,9.82
2022-12-17T14:14:21.642Z,9.95
2022-12-17T14:16:51.075Z,8.88
2022-12-17T14:19:18.356Z,9.13
2022-12-17T14:21:45.669Z,9.77
2022-12-17T14:24:14.070Z,11.82
2022-12-17T14:26:48.379Z,7.93
2022-12-17T14:29:15.585Z,7.43
2022-12-17T14:31:52.322Z,8.07
2022-12-17T14:34:19.681Z,7.93
2022-12-17T14:36:47.614Z,8.65
2022-12-17T14:39:33.631Z,8.40
2022-12-17T14:42:29.457Z,9.40
2022-12-17T14:45:06.409Z,8.77
2022-12-17T14:47:37.580Z,7.10
2022-12-17T14:50:07.538Z,7.32
2022-12-17T14:52:37.734Z,9.23
2022-12-17T14:55:23.362Z,9.13
2022-12-17T14:57:56.034Z,9.23
2022-12-17T15:00:23.268Z,9.15
2022-12-17T15:02:52.606Z,7.72
2022-12-17T15:05:20.005Z,9.02
2022-12-17T15:07:47.195Z,8.93
2022-12-17T15:10:15.611Z,6.57
2022-12-17T15:12:43.142Z,8.90
2022-12-17T15:15:13.911Z,8.25
2022-12-17T15:17:41.326Z,8.38
2022-12-17T15:20:12.784Z,9.13
2022-12-17T15:22:39.889Z,7.28
2022-12-17T15:25:07.291Z,8.45
2022-12-17T15:27:34.428Z,7.88
2022-12-17T15:30:01.547Z,8.85
2022-12-17T15:32:29.080Z,8.82
2022-12-17T15:34:56.257Z,9.25
2022-12-17T15:37:25.793Z,11.43
2022-12-17T15:39:53.322Z,9.15
2022-12-17T15:42:38.992Z,9.63
2022-12-17T15:45:06.441Z,7.15
2022-12-17T15:47:33.587Z,7.53
2022-12-17T15:50:01.242Z,9.52
2022-12-17T15:52:28.438Z,7.75
2022-12-17T15:54:55.588Z,8.85
2022-12-17T15:57:22.730Z,8.73
2022-12-17T15:59:51.162Z,7.75
2022-12-17T16:02:18.878Z,8.70
2022-12-17T16:04:46.047Z,8.63
2022-12-17T16:07:13.356Z,7.20
2022-12-17T16:09:40.440Z,7.45
2022-12-17T16:12:07.560Z,8.07
2022-12-17T16:14:34.723Z,6.57
2022-12-17T16:17:01.981Z,6.93
2022-12-17T16:19:30.338Z,6.00
2022-12-17T16:21:57.609Z,8.40
2022-12-17T16:24:24.851Z,7.90
2022-12-17T16:26:52.150Z,8.25
2022-12-17T16:29:19.353Z,7.43
2022-12-17T16:31:46.461Z,6.65
2022-12-17T16:34:14.212Z,8.25
2022-12-17T16:36:41.318Z,7.00
2022-12-17T16:39:08.511Z,6.90
2022-12-17T16:41:35.599Z,9.25
2022-12-17T16:44:03.085Z,7.43
2022-12-17T16:46:31.870Z,7.53
2022-12-17T16:49:00.608Z,8.65
2022-12-17T16:51:29.599Z,7.05
2022-12-17T16:53:57.466Z,7.10
2022-12-17T16:56:25.983Z,7.80
2022-12-17T16:58:53.133Z,7.93
2022-12-17T17:01:21.468Z,6.25
2022-12-17T17:03:49.158Z,7.18
2022-12-17T17:06:17.467Z,7.25
2022-12-17T17:08:44.990Z,5.72
2022-12-17T17:11:13.715Z,7.50
2022-12-17T17:13:41.186Z,5.90
2022-12-17T17:16:09.187Z,7.90
2022-12-17T17:18:36.908Z,7.18
2022-12-17T17:21:16.248Z,8.00
2022-12-17T17:23:43.637Z,8.95
2022-12-17T17:26:11.173Z,7.88
2022-12-17T17:28:38.818Z,8.20
2022-12-17T17:31:07.845Z,7.50
2022-12-17T17:33:36.460Z,7.13
2022-12-17T17:36:04.511Z,9.20
2022-12-17T17:38:33.386Z,7.38
2022-12-17T17:41:00.482Z,8.77
2022-12-17T17:43:28.168Z,8.70
2022-12-17T17:45:55.661Z,8.95
2022-12-17T17:48:22.900Z,8.98
2022-12-17T17:51:03.593Z,8.15
2022-12-17T17:53:31.039Z,8.75
2022-12-17T17:56:05.484Z,8.00
2022-12-17T17:58:33.417Z,9.18
2022-12-17T18:01:01.095Z,6.47
2022-12-17T18:03:29.873Z,8.38
2022-12-17T18:06:01.308Z,6.80
2022-12-17T18:08:29.605Z,7.65
2022-12-17T18:10:58.104Z,7.68
2022-12-17T18:13:44.077Z,6.72
2022-12-17T18:16:11.666Z,8.93
2022-12-17T18:18:39.538Z,7.80
2022-12-17T18:21:08.200Z,7.40
2022-12-17T18:23:35.700Z,7.10
2022-12-17T18:26:10.207Z,8.73
2022-12-17T18:28:38.510Z,8.07
2022-12-17T18:31:10.093Z,7.32
2022-12-17T18:33:38.055Z,8.13
2022-12-17T18:36:09.130Z,9.43
2022-12-17T18:38:37.137Z,8.32
2022-12-17T18:41:28.390Z,7.72
2022-12-17T18:43:55.497Z,8.35
2022-12-17T18:46:23.516Z,7.78
2022-12-17T18:48:53.450Z,6.60
2022-12-17T18:51:21.580Z,8.70
2022-12-17T18:53:49.077Z,8.00
2022-12-17T18:56:31.707Z,7.88
2022-12-17T18:59:03.557Z,6.88
2022-12-17T19:01:35.539Z,7.93
2022-12-17T19:04:06.964Z,7.72
2022-12-17T19:06:34.562Z,9.05
2022-12-17T19:09:01.734Z,8.18
2022-12-17T19:11:29.156Z,8.48
2022-12-17T19:13:56.223Z,7.35
2022-12-17T19:16:24.841Z,8.70
2022-12-17T19:18:59.724Z,7.57
2022-12-17T19:21:27.250Z,7.20
2022-12-17T19:23:58.558Z,7.63
2022-12-17T19:26:25.949Z,8.68
2022-12-17T19:28:54.076Z,7.68
2022-12-17T19:31:21.803Z,7.70
2022-12-17T19:33:49.301Z,9.52
2022-12-17T19:36:17.894Z,8.90
2022-12-17T19:38:45.631Z,8.55
2022-12-17T19:41:14.906Z,8.60
2022-12-17T19:43:42.978Z,8.70
2022-12-17T19:46:14.753Z,9.70
2022-12-17T19:48:47.962Z,9.27
2022-12-17T19:51:16.596Z,9.07
2022-12-17T19:53:44.528Z,9.15
2022-12-17T19:56:13.386Z,8.20
2022-12-17T19:58:41.701Z,8.95
2022-12-17T20:01:09.780Z,13.68
2022-12-17T20:03:38.179Z,8.32
2022-12-17T20:06:05.663Z,9.07
2022-12-17T20:08:33.205Z,8.43
2022-12-17T20:11:24.651Z,8.75
2022-12-17T20:14:00.324Z,9.52
2022-12-17T20:16:28.142Z,9.70
2022-12-17T20:18:55.302Z,9.60
2022-12-17T20:21:22.426Z,8.02
2022-12-17T20:23:50.423Z,8.77
2022-12-17T20:26:18.050Z,8.73
2022-12-17T20:28:47.405Z,9.85
2022-12-17T20:31:14.646Z,8.63
2022-12-17T20:33:41.745Z,11.25
2022-12-17T20:36:13.763Z,12.02
2022-12-17T20:38:41.727Z,10.32
2022-12-17T20:41:10.664Z,10.25
2022-12-17T20:43:38.025Z,10.57
2022-12-17T20:46:05.252Z,10.85
2022-12-17T20:48:32.877Z,9.60
2022-12-17T20:50:59.925Z,9.90
2022-12-17T20:53:27.431Z,11.05
2022-12-17T20:56:04.640Z,11.05
2022-12-17T20:58:32.157Z,11.20
2022-12-17T21:01:22.656Z,9.55
2022-12-17T21:03:51.496Z,10.30
2022-12-17T21:06:20.444Z,11.10
2022-12-17T21:08:50.226Z,14.07
2022-12-17T21:11:21.664Z,10.63
2022-12-17T21:13:49.153Z,11.55
2022-12-17T21:16:20.372Z,10.60
2022-12-17T21:18:47.896Z,9.35
2022-12-17T21:21:18.147Z,13.57
2022-12-17T21:23:47.778Z,15.77
2022-12-17T21:26:16.710Z,16.50
2022-12-17T21:28:47.196Z,14.55
2022-12-17T21:31:17.562Z,12.95
2022-12-17T21:33:45.635Z,14.65
2022-12-17T21:36:12.966Z,14.85
2022-12-17T21:38:40.717Z,12.23
2022-12-17T21:41:09.521Z,11.73
2022-12-17T21:43:37.166Z,13.15
2022-12-17T21:46:04.913Z,13.07
2022-12-17T21:48:38.044Z,14.48
2022-12-17T21:51:09.625Z,12.88
2022-12-17T21:53:38.796Z,13.25
2022-12-17T21:56:07.410Z,12.23
2022-12-17T21:58:34.894Z,11.75
2022-12-17T22:01:19.116Z,13.38
2022-12-17T22:03:46.972Z,15.63
2022-12-17T22:06:16.470Z,14.15
2022-12-17T22:08:44.441Z,13.43
2022-12-17T22:11:12.598Z,13.80
2022-12-17T22:14:05.041Z,12.55
2022-12-17T22:19:07.197Z,10.57
2022-12-17T22:21:39.172Z,11.57
2022-12-17T22:24:07.178Z,14.20
2022-12-17T22:26:34.263Z,12.23
2022-12-17T22:29:01.422Z,12.75
2022-12-17T22:31:47.058Z,12.63
2022-12-17T22:35:02.077Z,13.48
2022-12-17T22:43:12.571Z,13.20
2022-12-17T22:44:37.449Z,10.93
2022-12-17T22:45:42.863Z,11.60
2022-12-17T22:48:10.511Z,12.10
2022-12-17T22:50:47.741Z,11.68
2022-12-17T22:53:25.972Z,14.98
2022-12-17T22:55:53.378Z,14.02
2022-12-17T22:58:21.454Z,12.55
2022-12-17T23:00:48.581Z,11.23
2022-12-17T23:03:15.821Z,11.45
2022-12-17T23:05:43.033Z,13.88
2022-12-17T23:08:10.225Z,11.15
2022-12-17T23:10:37.387Z,11.68
2022-12-17T23:13:04.460Z,11.23
2022-12-17T23:15:34.741Z,13.07
2022-12-17T23:18:03.163Z,11.55
2022-12-17T23:20:32.243Z,12.43
2022-12-17T23:22:59.461Z,13.20
2022-12-17T23:25:27.113Z,11.40
2022-12-17T23:27:55.827Z,11.45
2022-12-17T23:30:23.196Z,11.95
2022-12-17T23:32:50.434Z,12.27
2022-12-17T23:35:17.598Z,11.55
2022-12-17T23:37:44.715Z,10.63
2022-12-17T23:40:12.376Z,11.65
2022-12-17T23:42:39.924Z,13.93
2022-12-17T23:45:07.859Z,11.90
2022-12-17T23:47:35.136Z,10.20
2022-12-17T23:50:02.202Z,10.38
2022-12-17T23:52:29.378Z,13.13
2022-12-17T23:54:56.545Z,12.70
2022-12-17T23:57:23.691Z,11.38
2022-12-17T23:59:50.799Z,12.93
